sensor_id;sensor_type;location;lat;lon;timestamp;pressure;altitude;pressure_sealevel;temperature;humidity
67015;BME280;1033;52.560;13.374;2022-09-09T00:00:41;100507.59;;;14.75;100.00
67015;BME280;1033;52.560;13.374;2022-09-09T00:03:19;100517.41;;;14.76;100.00
67015;BME280;1033;52.560;13.374;2022-09-09T00:06:00;100504.16;;;14.68;100.00
67015;BME280;1033;52.560;13.374;2022-09-09T00:08:52;100502.59;;;14.72;100.00
67015;BME280;1033;52.560;13.374;2022-09-09T00:11:32;100504.19;;;14.57;100.00
67015;BME280;1033;52.560;13.374;2022-09-09T00:14:14;100510.56;;;14.51;100.00
67015;BME280;1033;52.560;13.374;2022-09-09T00:16:53;100511.28;;;14.46;100.00
67015;BME280;1033;52.560;13.374;2022-09-09T00:19:31;100500.00;;;14.43;100.00
67015;BME280;1033;52.560;13.374;2022-09-09T00:22:15;100500.38;;;14.46;100.00
67015;BME280;1033;52.560;13.374;2022-09-09T00:24:50;100498.50;;;14.47;100.00
67015;BME280;1033;52.560;13.374;2022-09-09T00:27:30;100495.41;;;14.55;100.00
67015;BME280;1033;52.560;13.374;2022-09-09T00:30:14;100499.44;;;14.64;100.00
67015;BME280;1033;52.560;13.374;2022-09-09T00:32:44;100500.38;;;14.69;100.00
67015;BME280;1033;52.560;13.374;2022-09-09T00:35:20;100497.66;;;14.58;100.00
67015;BME280;1033;52.560;13.374;2022-09-09T00:37:54;100496.47;;;14.54;100.00
67015;BME280;1033;52.560;13.374;2022-09-09T00:40:34;100487.13;;;14.50;100.00
67015;BME280;1033;52.560;13.374;2022-09-09T00:43:28;100491.13;;;14.35;100.00
67015;BME280;1033;52.560;13.374;2022-09-09T00:46:47;100489.47;;;14.34;100.00
67015;BME280;1033;52.560;13.374;2022-09-09T00:49:31;100486.66;;;14.41;100.00
67015;BME280;1033;52.560;13.374;2022-09-09T00:52:20;100480.38;;;14.41;100.00
67015;BME280;1033;52.560;13.374;2022-09-09T00:55:04;100489.34;;;14.29;100.00
67015;BME280;1033;52.560;13.374;2022-09-09T00:57:36;100497.06;;;14.32;100.00
67015;BME280;1033;52.560;13.374;2022-09-09T01:00:24;100492.81;;;14.37;100.00
67015;BME280;1033;52.560;13.374;2022-09-09T01:03:22;100498.00;;;14.26;100.00
67015;BME280;1033;52.560;13.374;2022-09-09T01:06:01;100495.97;;;14.22;100.00
67015;BME280;1033;52.560;13.374;2022-09-09T01:08:56;100494.19;;;14.16;100.00
67015;BME280;1033;52.560;13.374;2022-09-09T01:11:43;100486.97;;;14.21;100.00
67015;BME280;1033;52.560;13.374;2022-09-09T01:14:35;100493.56;;;14.14;100.00
67015;BME280;1033;52.560;13.374;2022-09-09T01:17:15;100497.16;;;14.26;100.00
67015;BME280;1033;52.560;13.374;2022-09-09T01:20:08;100509.44;;;14.28;100.00
67015;BME280;1033;52.560;13.374;2022-09-09T01:23:28;100505.22;;;14.32;100.00
67015;BME280;1033;52.560;13.374;2022-09-09T01:26:25;100489.81;;;14.26;100.00
67015;BME280;1033;52.560;13.374;2022-09-09T01:28:59;100496.94;;;14.27;100.00
67015;BME280;1033;52.560;13.374;2022-09-09T01:31:38;100492.31;;;14.28;100.00
67015;BME280;1033;52.560;13.374;2022-09-09T01:34:11;100499.16;;;14.30;100.00
67015;BME280;1033;52.560;13.374;2022-09-09T01:36:47;100498.44;;;14.23;100.00
67015;BME280;1033;52.560;13.374;2022-09-09T01:39:19;100497.75;;;14.28;100.00
67015;BME280;1033;52.560;13.374;2022-09-09T01:41:59;100493.13;;;14.28;100.00
67015;BME280;1033;52.560;13.374;2022-09-09T01:44:29;100494.53;;;14.19;100.00
67015;BME280;1033;52.560;13.374;2022-09-09T01:47:00;100494.66;;;14.13;100.00
67015;BME280;1033;52.560;13.374;2022-09-09T01:49:32;100493.09;;;14.05;100.00
67015;BME280;1033;52.560;13.374;2022-09-09T01:52:11;100500.22;;;14.06;100.00
67015;BME280;1033;52.560;13.374;2022-09-09T01:54:40;100499.03;;;14.02;100.00
67015;BME280;1033;52.560;13.374;2022-09-09T01:57:23;100501.13;;;14.00;100.00
67015;BME280;1033;52.560;13.374;2022-09-09T02:00:03;100505.38;;;13.96;100.00
67015;BME280;1033;52.560;13.374;2022-09-09T02:02:51;100498.53;;;14.05;100.00
67015;BME280;1033;52.560;13.374;2022-09-09T02:05:37;100497.72;;;14.05;100.00
67015;BME280;1033;52.560;13.374;2022-09-09T02:08:21;100495.00;;;14.05;100.00
67015;BME280;1033;52.560;13.374;2022-09-09T02:11:03;100503.59;;;13.90;100.00
67015;BME280;1033;52.560;13.374;2022-09-09T02:13:56;100503.47;;;13.85;100.00
67015;BME280;1033;52.560;13.374;2022-09-09T02:16:32;100503.25;;;13.86;100.00
67015;BME280;1033;52.560;13.374;2022-09-09T02:19:12;100501.00;;;13.83;100.00
67015;BME280;1033;52.560;13.374;2022-09-09T02:21:59;100521.44;;;13.86;100.00
67015;BME280;1033;52.560;13.374;2022-09-09T02:24:31;100525.03;;;13.98;100.00
67015;BME280;1033;52.560;13.374;2022-09-09T02:27:23;100522.56;;;13.97;100.00
67015;BME280;1033;52.560;13.374;2022-09-09T02:29:56;100515.91;;;13.92;100.00
67015;BME280;1033;52.560;13.374;2022-09-09T02:32:42;100515.88;;;13.81;100.00
67015;BME280;1033;52.560;13.374;2022-09-09T02:35:19;100515.31;;;13.79;100.00
67015;BME280;1033;52.560;13.374;2022-09-09T02:37:52;100512.84;;;13.89;100.00
67015;BME280;1033;52.560;13.374;2022-09-09T02:40:23;100510.22;;;13.82;100.00
67015;BME280;1033;52.560;13.374;2022-09-09T02:42:59;100508.63;;;13.75;100.00
67015;BME280;1033;52.560;13.374;2022-09-09T02:45:41;100512.19;;;13.75;100.00
67015;BME280;1033;52.560;13.374;2022-09-09T02:48:22;100510.34;;;13.87;100.00
67015;BME280;1033;52.560;13.374;2022-09-09T02:51:00;100519.53;;;13.75;100.00
67015;BME280;1033;52.560;13.374;2022-09-09T02:53:42;100514.19;;;13.68;100.00
67015;BME280;1033;52.560;13.374;2022-09-09T02:56:17;100500.25;;;13.65;100.00
67015;BME280;1033;52.560;13.374;2022-09-09T02:58:49;100509.47;;;13.75;100.00
67015;BME280;1033;52.560;13.374;2022-09-09T03:01:21;100512.53;;;13.67;100.00
67015;BME280;1033;52.560;13.374;2022-09-09T03:03:50;100512.88;;;13.71;100.00
67015;BME280;1033;52.560;13.374;2022-09-09T03:06:19;100509.69;;;13.62;100.00
67015;BME280;1033;52.560;13.374;2022-09-09T03:08:54;100511.81;;;13.60;100.00
67015;BME280;1033;52.560;13.374;2022-09-09T03:11:27;100508.13;;;13.55;100.00
67015;BME280;1033;52.560;13.374;2022-09-09T03:13:57;100511.44;;;13.57;100.00
67015;BME280;1033;52.560;13.374;2022-09-09T03:16:30;100513.09;;;13.58;100.00
67015;BME280;1033;52.560;13.374;2022-09-09T03:19:01;100518.25;;;13.47;100.00
67015;BME280;1033;52.560;13.374;2022-09-09T03:21:30;100524.59;;;13.41;100.00
67015;BME280;1033;52.560;13.374;2022-09-09T03:23:59;100531.69;;;13.42;100.00
67015;BME280;1033;52.560;13.374;2022-09-09T03:26:31;100526.13;;;13.37;100.00
67015;BME280;1033;52.560;13.374;2022-09-09T03:29:00;100530.97;;;13.35;100.00
67015;BME280;1033;52.560;13.374;2022-09-09T03:31:31;100537.47;;;13.34;100.00
67015;BME280;1033;52.560;13.374;2022-09-09T03:34:00;100526.25;;;13.42;100.00
67015;BME280;1033;52.560;13.374;2022-09-09T03:36:32;100528.94;;;13.61;100.00
67015;BME280;1033;52.560;13.374;2022-09-09T03:39:02;100530.78;;;13.48;100.00
67015;BME280;1033;52.560;13.374;2022-09-09T03:41:31;100522.78;;;13.54;100.00
67015;BME280;1033;52.560;13.374;2022-09-09T03:44:02;100529.13;;;13.47;100.00
67015;BME280;1033;52.560;13.374;2022-09-09T03:46:38;100536.78;;;13.39;100.00
67015;BME280;1033;52.560;13.374;2022-09-09T03:49:07;100534.75;;;13.34;100.00
67015;BME280;1033;52.560;13.374;2022-09-09T03:51:37;100534.75;;;13.34;100.00
67015;BME280;1033;52.560;13.374;2022-09-09T03:54:07;100538.03;;;13.36;100.00
67015;BME280;1033;52.560;13.374;2022-09-09T03:56:38;100543.63;;;13.41;100.00
67015;BME280;1033;52.560;13.374;2022-09-09T03:59:11;100538.44;;;13.40;100.00
67015;BME280;1033;52.560;13.374;2022-09-09T04:01:44;100541.50;;;13.43;100.00
67015;BME280;1033;52.560;13.374;2022-09-09T04:04:14;100537.59;;;13.39;100.00
67015;BME280;1033;52.560;13.374;2022-09-09T04:06:43;100525.75;;;13.34;100.00
67015;BME280;1033;52.560;13.374;2022-09-09T04:09:12;100537.91;;;13.31;100.00
67015;BME280;1033;52.560;13.374;2022-09-09T04:11:42;100532.72;;;13.30;100.00
67015;BME280;1033;52.560;13.374;2022-09-09T04:14:10;100529.00;;;13.24;100.00
67015;BME280;1033;52.560;13.374;2022-09-09T04:16:40;100528.41;;;13.22;100.00
67015;BME280;1033;52.560;13.374;2022-09-09T04:19:13;100529.47;;;13.21;100.00
67015;BME280;1033;52.560;13.374;2022-09-09T04:21:44;100520.25;;;13.22;100.00
67015;BME280;1033;52.560;13.374;2022-09-09T04:24:12;100528.19;;;13.24;100.00
67015;BME280;1033;52.560;13.374;2022-09-09T04:26:43;100530.13;;;13.35;100.00
67015;BME280;1033;52.560;13.374;2022-09-09T04:29:12;100532.59;;;13.36;100.00
67015;BME280;1033;52.560;13.374;2022-09-09T04:31:41;100537.31;;;13.29;100.00
67015;BME280;1033;52.560;13.374;2022-09-09T04:34:10;100538.59;;;13.27;100.00
67015;BME280;1033;52.560;13.374;2022-09-09T04:36:41;100546.66;;;13.33;100.00
67015;BME280;1033;52.560;13.374;2022-09-09T04:39:09;100543.47;;;13.36;100.00
67015;BME280;1033;52.560;13.374;2022-09-09T04:41:38;100547.16;;;13.42;100.00
67015;BME280;1033;52.560;13.374;2022-09-09T04:44:09;100546.88;;;13.50;100.00
67015;BME280;1033;52.560;13.374;2022-09-09T04:46:38;100547.09;;;13.48;100.00
67015;BME280;1033;52.560;13.374;2022-09-09T04:49:09;100549.50;;;13.57;100.00
67015;BME280;1033;52.560;13.374;2022-09-09T04:51:44;100553.66;;;13.59;100.00
67015;BME280;1033;52.560;13.374;2022-09-09T04:54:13;100558.25;;;13.59;100.00
67015;BME280;1033;52.560;13.374;2022-09-09T04:56:44;100555.75;;;13.57;100.00
67015;BME280;1033;52.560;13.374;2022-09-09T04:59:13;100560.31;;;13.75;100.00
67015;BME280;1033;52.560;13.374;2022-09-09T05:01:46;100563.41;;;14.08;100.00
67015;BME280;1033;52.560;13.374;2022-09-09T05:04:14;100570.09;;;14.94;100.00
67015;BME280;1033;52.560;13.374;2022-09-09T05:06:45;100576.13;;;15.19;100.00
67015;BME280;1033;52.560;13.374;2022-09-09T05:09:14;100569.66;;;15.48;100.00
67015;BME280;1033;52.560;13.374;2022-09-09T05:11:44;100569.50;;;14.92;100.00
67015;BME280;1033;52.560;13.374;2022-09-09T05:14:20;100577.91;;;14.67;100.00
67015;BME280;1033;52.560;13.374;2022-09-09T05:16:50;100573.44;;;14.61;100.00
67015;BME280;1033;52.560;13.374;2022-09-09T05:19:18;100573.69;;;14.71;100.00
67015;BME280;1033;52.560;13.374;2022-09-09T05:21:50;65101.41;;;-142.72;100.00
67015;BME280;1033;52.560;13.374;2022-09-09T05:24:24;65101.41;;;-142.72;100.00
67015;BME280;1033;52.560;13.374;2022-09-09T05:26:55;65101.41;;;-142.72;100.00
67015;BME280;1033;52.560;13.374;2022-09-09T05:29:25;65101.41;;;-142.72;100.00
67015;BME280;1033;52.560;13.374;2022-09-09T05:31:56;65101.41;;;-142.72;100.00
67015;BME280;1033;52.560;13.374;2022-09-09T05:34:24;65101.41;;;-142.72;100.00
67015;BME280;1033;52.560;13.374;2022-09-09T05:36:55;65101.41;;;-142.72;100.00
67015;BME280;1033;52.560;13.374;2022-09-09T05:39:26;65101.41;;;-142.72;100.00
67015;BME280;1033;52.560;13.374;2022-09-09T05:41:55;65101.41;;;-142.72;100.00
67015;BME280;1033;52.560;13.374;2022-09-09T05:44:24;65101.41;;;-142.72;100.00
67015;BME280;1033;52.560;13.374;2022-09-09T05:46:55;65101.41;;;-142.72;100.00
67015;BME280;1033;52.560;13.374;2022-09-09T05:49:25;65101.41;;;-142.72;100.00
67015;BME280;1033;52.560;13.374;2022-09-09T05:51:55;65101.41;;;-142.72;100.00
67015;BME280;1033;52.560;13.374;2022-09-09T05:54:24;65101.41;;;-142.72;100.00
67015;BME280;1033;52.560;13.374;2022-09-09T05:56:54;65101.41;;;-142.72;100.00
67015;BME280;1033;52.560;13.374;2022-09-09T05:59:23;65101.41;;;-142.72;100.00
67015;BME280;1033;52.560;13.374;2022-09-09T06:01:55;65101.41;;;-142.72;100.00
67015;BME280;1033;52.560;13.374;2022-09-09T06:04:30;65101.41;;;-142.72;100.00
67015;BME280;1033;52.560;13.374;2022-09-09T06:07:01;65101.41;;;-142.72;100.00
67015;BME280;1033;52.560;13.374;2022-09-09T06:09:30;65101.41;;;-142.72;100.00
67015;BME280;1033;52.560;13.374;2022-09-09T06:13:12;65101.41;;;-142.72;100.00
67015;BME280;1033;52.560;13.374;2022-09-09T06:15:50;65101.41;;;-142.72;100.00
67015;BME280;1033;52.560;13.374;2022-09-09T06:18:19;65101.41;;;-142.72;100.00
67015;BME280;1033;52.560;13.374;2022-09-09T06:20:55;65101.41;;;-142.72;100.00
67015;BME280;1033;52.560;13.374;2022-09-09T06:23:27;65101.41;;;-142.72;100.00
67015;BME280;1033;52.560;13.374;2022-09-09T06:26:06;65101.41;;;-142.72;100.00
67015;BME280;1033;52.560;13.374;2022-09-09T06:28:36;65101.41;;;-142.72;100.00
67015;BME280;1033;52.560;13.374;2022-09-09T06:31:08;65101.41;;;-142.72;100.00
67015;BME280;1033;52.560;13.374;2022-09-09T06:33:39;65101.41;;;-142.72;100.00
67015;BME280;1033;52.560;13.374;2022-09-09T06:36:13;65101.41;;;-142.72;100.00
67015;BME280;1033;52.560;13.374;2022-09-09T06:38:44;65101.41;;;-142.72;100.00
67015;BME280;1033;52.560;13.374;2022-09-09T06:41:16;65101.41;;;-142.72;100.00
67015;BME280;1033;52.560;13.374;2022-09-09T06:43:46;65101.41;;;-142.72;100.00
67015;BME280;1033;52.560;13.374;2022-09-09T06:46:19;65101.41;;;-142.72;100.00
67015;BME280;1033;52.560;13.374;2022-09-09T06:48:49;65101.41;;;-142.72;100.00
67015;BME280;1033;52.560;13.374;2022-09-09T06:51:21;65101.41;;;-142.72;100.00
67015;BME280;1033;52.560;13.374;2022-09-09T06:53:53;65101.41;;;-142.72;100.00
67015;BME280;1033;52.560;13.374;2022-09-09T06:56:26;65101.41;;;-142.72;100.00
67015;BME280;1033;52.560;13.374;2022-09-09T06:58:58;65101.41;;;-142.72;100.00
67015;BME280;1033;52.560;13.374;2022-09-09T07:01:32;65101.41;;;-142.72;100.00
67015;BME280;1033;52.560;13.374;2022-09-09T07:04:05;65101.41;;;-142.72;100.00
67015;BME280;1033;52.560;13.374;2022-09-09T07:06:38;65101.41;;;-142.72;100.00
67015;BME280;1033;52.560;13.374;2022-09-09T07:09:13;65101.41;;;-142.72;100.00
67015;BME280;1033;52.560;13.374;2022-09-09T07:11:48;65101.41;;;-142.72;100.00
67015;BME280;1033;52.560;13.374;2022-09-09T07:14:19;65101.41;;;-142.72;100.00
67015;BME280;1033;52.560;13.374;2022-09-09T07:16:55;65101.41;;;-142.72;100.00
67015;BME280;1033;52.560;13.374;2022-09-09T07:19:29;65101.41;;;-142.72;100.00
67015;BME280;1033;52.560;13.374;2022-09-09T07:21:57;65101.41;;;-142.72;100.00
67015;BME280;1033;52.560;13.374;2022-09-09T07:24:28;65101.41;;;-142.72;100.00
67015;BME280;1033;52.560;13.374;2022-09-09T07:26:58;65101.41;;;-142.72;100.00
67015;BME280;1033;52.560;13.374;2022-09-09T07:29:27;65101.41;;;-142.72;100.00
67015;BME280;1033;52.560;13.374;2022-09-09T07:31:56;65101.41;;;-142.72;100.00
67015;BME280;1033;52.560;13.374;2022-09-09T07:34:31;65101.41;;;-142.72;100.00
67015;BME280;1033;52.560;13.374;2022-09-09T07:37:02;65101.41;;;-142.72;100.00
67015;BME280;1033;52.560;13.374;2022-09-09T07:39:33;65101.41;;;-142.72;100.00
67015;BME280;1033;52.560;13.374;2022-09-09T07:42:02;65101.41;;;-142.72;100.00
67015;BME280;1033;52.560;13.374;2022-09-09T07:44:32;65101.41;;;-142.72;100.00
67015;BME280;1033;52.560;13.374;2022-09-09T07:47:11;65101.41;;;-142.72;100.00
67015;BME280;1033;52.560;13.374;2022-09-09T07:49:46;65101.41;;;-142.72;100.00
67015;BME280;1033;52.560;13.374;2022-09-09T07:52:22;65101.41;;;-142.72;100.00
67015;BME280;1033;52.560;13.374;2022-09-09T07:54:56;65101.41;;;-142.72;100.00
67015;BME280;1033;52.560;13.374;2022-09-09T07:57:28;65101.41;;;-142.72;100.00
67015;BME280;1033;52.560;13.374;2022-09-09T07:59:57;65101.41;;;-142.72;100.00
67015;BME280;1033;52.560;13.374;2022-09-09T08:02:27;65101.41;;;-142.72;100.00
67015;BME280;1033;52.560;13.374;2022-09-09T08:04:56;65101.41;;;-142.72;100.00
67015;BME280;1033;52.560;13.374;2022-09-09T08:07:25;65101.41;;;-142.72;100.00
67015;BME280;1033;52.560;13.374;2022-09-09T08:09:56;65101.41;;;-142.72;100.00
67015;BME280;1033;52.560;13.374;2022-09-09T08:12:29;65101.41;;;-142.72;100.00
67015;BME280;1033;52.560;13.374;2022-09-09T08:14:57;65101.41;;;-142.72;100.00
67015;BME280;1033;52.560;13.374;2022-09-09T08:17:30;65101.41;;;-142.72;100.00
67015;BME280;1033;52.560;13.374;2022-09-09T08:20:04;65101.41;;;-142.72;100.00
67015;BME280;1033;52.560;13.374;2022-09-09T08:22:34;65101.41;;;-142.72;100.00
67015;BME280;1033;52.560;13.374;2022-09-09T08:25:07;65101.41;;;-142.72;100.00
67015;BME280;1033;52.560;13.374;2022-09-09T08:27:38;65101.41;;;-142.72;100.00
67015;BME280;1033;52.560;13.374;2022-09-09T08:30:09;65101.41;;;-142.72;100.00
67015;BME280;1033;52.560;13.374;2022-09-09T08:32:40;65101.41;;;-142.72;100.00
67015;BME280;1033;52.560;13.374;2022-09-09T08:35:13;65101.41;;;-142.72;100.00
67015;BME280;1033;52.560;13.374;2022-09-09T08:37:42;65101.41;;;-142.72;100.00
67015;BME280;1033;52.560;13.374;2022-09-09T08:40:28;65101.41;;;-142.72;100.00
67015;BME280;1033;52.560;13.374;2022-09-09T08:43:00;65101.41;;;-142.72;100.00
67015;BME280;1033;52.560;13.374;2022-09-09T08:45:37;65101.41;;;-142.72;100.00
67015;BME280;1033;52.560;13.374;2022-09-09T08:48:33;65101.41;;;-142.72;100.00
67015;BME280;1033;52.560;13.374;2022-09-09T08:51:09;65101.41;;;-142.72;100.00
67015;BME280;1033;52.560;13.374;2022-09-09T08:53:44;65101.41;;;-142.72;100.00
67015;BME280;1033;52.560;13.374;2022-09-09T08:56:21;65101.41;;;-142.72;100.00
67015;BME280;1033;52.560;13.374;2022-09-09T08:58:56;65101.41;;;-142.72;100.00
67015;BME280;1033;52.560;13.374;2022-09-09T09:01:58;65101.41;;;-142.72;100.00
67015;BME280;1033;52.560;13.374;2022-09-09T09:05:09;65101.41;;;-142.72;100.00
67015;BME280;1033;52.560;13.374;2022-09-09T09:07:59;65101.41;;;-142.72;100.00
67015;BME280;1033;52.560;13.374;2022-09-09T09:10:45;65101.41;;;-142.72;100.00
67015;BME280;1033;52.560;13.374;2022-09-09T09:13:29;65101.41;;;-142.72;100.00
67015;BME280;1033;52.560;13.374;2022-09-09T09:16:14;65101.41;;;-142.72;100.00
67015;BME280;1033;52.560;13.374;2022-09-09T09:18:46;65101.41;;;-142.72;100.00
67015;BME280;1033;52.560;13.374;2022-09-09T09:21:24;65101.41;;;-142.72;100.00
67015;BME280;1033;52.560;13.374;2022-09-09T09:23:57;65101.41;;;-142.72;100.00
67015;BME280;1033;52.560;13.374;2022-09-09T09:26:35;65101.41;;;-142.72;100.00
67015;BME280;1033;52.560;13.374;2022-09-09T09:29:12;65101.41;;;-142.72;100.00
67015;BME280;1033;52.560;13.374;2022-09-09T09:31:46;65101.41;;;-142.72;100.00
67015;BME280;1033;52.560;13.374;2022-09-09T09:34:16;65101.41;;;-142.72;100.00
67015;BME280;1033;52.560;13.374;2022-09-09T09:36:54;65101.41;;;-142.72;100.00
67015;BME280;1033;52.560;13.374;2022-09-09T09:39:30;65101.41;;;-142.72;100.00
67015;BME280;1033;52.560;13.374;2022-09-09T09:42:25;65101.41;;;-142.72;100.00
67015;BME280;1033;52.560;13.374;2022-09-09T09:45:41;65101.41;;;-142.72;100.00
67015;BME280;1033;52.560;13.374;2022-09-09T09:48:33;65101.41;;;-142.72;100.00
67015;BME280;1033;52.560;13.374;2022-09-09T09:51:09;65101.41;;;-142.72;100.00
67015;BME280;1033;52.560;13.374;2022-09-09T09:53:40;65101.41;;;-142.72;100.00
67015;BME280;1033;52.560;13.374;2022-09-09T09:56:14;65101.41;;;-142.72;100.00
67015;BME280;1033;52.560;13.374;2022-09-09T09:58:51;65101.41;;;-142.72;100.00
67015;BME280;1033;52.560;13.374;2022-09-09T10:01:30;65101.41;;;-142.72;100.00
67015;BME280;1033;52.560;13.374;2022-09-09T10:04:17;65101.41;;;-142.72;100.00
67015;BME280;1033;52.560;13.374;2022-09-09T10:06:51;65101.41;;;-142.72;100.00
67015;BME280;1033;52.560;13.374;2022-09-09T10:09:24;65101.41;;;-142.72;100.00
67015;BME280;1033;52.560;13.374;2022-09-09T10:12:03;65101.41;;;-142.72;100.00
67015;BME280;1033;52.560;13.374;2022-09-09T10:14:45;65101.41;;;-142.72;100.00
67015;BME280;1033;52.560;13.374;2022-09-09T10:17:30;65101.41;;;-142.72;100.00
67015;BME280;1033;52.560;13.374;2022-09-09T10:20:30;65101.41;;;-142.72;100.00
67015;BME280;1033;52.560;13.374;2022-09-09T10:23:16;65101.41;;;-142.72;100.00
67015;BME280;1033;52.560;13.374;2022-09-09T10:26:12;65101.41;;;-142.72;100.00
67015;BME280;1033;52.560;13.374;2022-09-09T10:29:27;65101.41;;;-142.72;100.00
67015;BME280;1033;52.560;13.374;2022-09-09T10:35:10;65101.41;;;-142.72;100.00
67015;BME280;1033;52.560;13.374;2022-09-09T10:38:10;65101.41;;;-142.72;100.00
67015;BME280;1033;52.560;13.374;2022-09-09T10:41:16;65101.41;;;-142.72;100.00
67015;BME280;1033;52.560;13.374;2022-09-09T10:44:12;65101.41;;;-142.72;100.00
67015;BME280;1033;52.560;13.374;2022-09-09T10:47:02;65101.41;;;-142.72;100.00
67015;BME280;1033;52.560;13.374;2022-09-09T10:50:02;65101.41;;;-142.72;100.00
67015;BME280;1033;52.560;13.374;2022-09-09T10:52:46;65101.41;;;-142.72;100.00
67015;BME280;1033;52.560;13.374;2022-09-09T10:55:24;65101.41;;;-142.72;100.00
67015;BME280;1033;52.560;13.374;2022-09-09T10:58:00;65101.41;;;-142.72;100.00
67015;BME280;1033;52.560;13.374;2022-09-09T11:00:39;65101.41;;;-142.72;100.00
67015;BME280;1033;52.560;13.374;2022-09-09T11:03:19;65101.41;;;-142.72;100.00
67015;BME280;1033;52.560;13.374;2022-09-09T11:05:56;65101.41;;;-142.72;100.00
67015;BME280;1033;52.560;13.374;2022-09-09T11:08:29;65101.41;;;-142.72;100.00
67015;BME280;1033;52.560;13.374;2022-09-09T11:11:04;65101.41;;;-142.72;100.00
67015;BME280;1033;52.560;13.374;2022-09-09T11:13:45;65101.41;;;-142.72;100.00
67015;BME280;1033;52.560;13.374;2022-09-09T11:16:27;65101.41;;;-142.72;100.00
67015;BME280;1033;52.560;13.374;2022-09-09T11:19:07;65101.41;;;-142.72;100.00
67015;BME280;1033;52.560;13.374;2022-09-09T11:21:46;65101.41;;;-142.72;100.00
67015;BME280;1033;52.560;13.374;2022-09-09T11:24:22;65101.41;;;-142.72;100.00
67015;BME280;1033;52.560;13.374;2022-09-09T11:26:59;65101.41;;;-142.72;100.00
67015;BME280;1033;52.560;13.374;2022-09-09T11:30:17;65101.41;;;-142.72;100.00
67015;BME280;1033;52.560;13.374;2022-09-09T11:33:46;65101.41;;;-142.72;100.00
67015;BME280;1033;52.560;13.374;2022-09-09T11:36:41;65101.41;;;-142.72;100.00
67015;BME280;1033;52.560;13.374;2022-09-09T11:39:38;65101.41;;;-142.72;100.00
67015;BME280;1033;52.560;13.374;2022-09-09T11:42:17;65101.41;;;-142.72;100.00
67015;BME280;1033;52.560;13.374;2022-09-09T11:44:47;65101.41;;;-142.72;100.00
67015;BME280;1033;52.560;13.374;2022-09-09T11:47:23;65101.41;;;-142.72;100.00
67015;BME280;1033;52.560;13.374;2022-09-09T11:50:10;65101.41;;;-142.72;100.00
67015;BME280;1033;52.560;13.374;2022-09-09T11:52:44;65101.41;;;-142.72;100.00
67015;BME280;1033;52.560;13.374;2022-09-09T11:55:27;65101.41;;;-142.72;100.00
67015;BME280;1033;52.560;13.374;2022-09-09T11:57:59;65101.41;;;-142.72;100.00
67015;BME280;1033;52.560;13.374;2022-09-09T12:00:35;65101.41;;;-142.72;100.00
67015;BME280;1033;52.560;13.374;2022-09-09T12:03:08;65101.41;;;-142.72;100.00
67015;BME280;1033;52.560;13.374;2022-09-09T12:05:58;65101.41;;;-142.72;100.00
67015;BME280;1033;52.560;13.374;2022-09-09T12:08:30;65101.41;;;-142.72;100.00
67015;BME280;1033;52.560;13.374;2022-09-09T12:11:00;65101.41;;;-142.72;100.00
67015;BME280;1033;52.560;13.374;2022-09-09T12:13:30;65101.41;;;-142.72;100.00
67015;BME280;1033;52.560;13.374;2022-09-09T12:16:01;65101.41;;;-142.72;100.00
67015;BME280;1033;52.560;13.374;2022-09-09T12:18:35;65101.41;;;-142.72;100.00
67015;BME280;1033;52.560;13.374;2022-09-09T12:21:16;65101.41;;;-142.72;100.00
67015;BME280;1033;52.560;13.374;2022-09-09T12:23:55;65101.41;;;-142.72;100.00
67015;BME280;1033;52.560;13.374;2022-09-09T12:26:33;65101.41;;;-142.72;100.00
67015;BME280;1033;52.560;13.374;2022-09-09T12:29:24;65101.41;;;-142.72;100.00
67015;BME280;1033;52.560;13.374;2022-09-09T12:32:04;65101.41;;;-142.72;100.00
67015;BME280;1033;52.560;13.374;2022-09-09T12:34:40;65101.41;;;-142.72;100.00
67015;BME280;1033;52.560;13.374;2022-09-09T12:37:18;65101.41;;;-142.72;100.00
67015;BME280;1033;52.560;13.374;2022-09-09T12:39:56;65101.41;;;-142.72;100.00
67015;BME280;1033;52.560;13.374;2022-09-09T12:42:27;65101.41;;;-142.72;100.00
67015;BME280;1033;52.560;13.374;2022-09-09T12:44:59;65101.41;;;-142.72;100.00
67015;BME280;1033;52.560;13.374;2022-09-09T12:47:38;65101.41;;;-142.72;100.00
67015;BME280;1033;52.560;13.374;2022-09-09T12:50:22;65101.41;;;-142.72;100.00
67015;BME280;1033;52.560;13.374;2022-09-09T12:52:56;65101.41;;;-142.72;100.00
67015;BME280;1033;52.560;13.374;2022-09-09T12:55:32;65101.41;;;-142.72;100.00
67015;BME280;1033;52.560;13.374;2022-09-09T12:58:05;65101.41;;;-142.72;100.00
67015;BME280;1033;52.560;13.374;2022-09-09T13:00:35;65101.41;;;-142.72;100.00
67015;BME280;1033;52.560;13.374;2022-09-09T13:03:18;65101.41;;;-142.72;100.00
67015;BME280;1033;52.560;13.374;2022-09-09T13:05:50;65101.41;;;-142.72;100.00
67015;BME280;1033;52.560;13.374;2022-09-09T13:08:20;65101.41;;;-142.72;100.00
67015;BME280;1033;52.560;13.374;2022-09-09T13:10:56;65101.41;;;-142.72;100.00
67015;BME280;1033;52.560;13.374;2022-09-09T13:13:35;65101.41;;;-142.72;100.00
67015;BME280;1033;52.560;13.374;2022-09-09T13:16:07;65101.41;;;-142.72;100.00
67015;BME280;1033;52.560;13.374;2022-09-09T13:18:47;65101.41;;;-142.72;100.00
67015;BME280;1033;52.560;13.374;2022-09-09T13:21:17;65101.41;;;-142.72;100.00
67015;BME280;1033;52.560;13.374;2022-09-09T13:23:50;65101.41;;;-142.72;100.00
67015;BME280;1033;52.560;13.374;2022-09-09T13:26:25;65101.41;;;-142.72;100.00